Time;durP1;ratioP1;P1;durP2;ratioP2;P2;SDS_P1;SDS_P2;PMS_P1;PMS_P2;Temp;Humidity;BMP_temperature;BMP_pressure;BME280_temperature;BME280_humidity;BME280_pressure;Samples;Min_cycle;Max_cycle;Signal;HPM_P1;HPM_P2
2023/08/09 00:01:23;;;;;;;3.07;2.30;;;;;;;15.13;100.00;99309.91;5074769;28;20208;-75
2023/08/09 00:03:50;;;;;;;3.47;2.27;;;;;;;15.12;100.00;99305.56;5074616;28;20193;-75
2023/08/09 00:06:16;;;;;;;3.27;2.13;;;;;;;15.13;100.00;99304.50;5071916;28;20251;-74
2023/08/09 00:08:43;;;;;;;2.20;2.00;;;;;;;15.15;100.00;99310.47;5071326;28;20275;-74
2023/08/09 00:11:11;;;;;;;2.30;2.10;;;;;;;15.15;100.00;99295.09;5074556;28;20197;-75
2023/08/09 00:13:37;;;;;;;2.63;2.00;;;;;;;15.12;100.00;99294.78;5071920;28;20259;-75
2023/08/09 00:16:05;;;;;;;2.90;2.10;;;;;;;15.14;100.00;99303.44;5074570;28;20217;-74
2023/08/09 00:18:31;;;;;;;2.30;2.10;;;;;;;15.14;100.00;99298.03;5074316;28;20201;-75
2023/08/09 00:20:58;;;;;;;3.93;2.47;;;;;;;15.14;100.00;99300.75;5074391;28;20671;-76
2023/08/09 00:23:25;;;;;;;3.93;2.03;;;;;;;15.09;100.00;99295.28;5071414;28;20647;-75
2023/08/09 00:25:52;;;;;;;3.27;2.00;;;;;;;15.07;100.00;99295.53;5067594;28;20193;-74
2023/08/09 00:28:18;;;;;;;2.10;2.00;;;;;;;15.05;100.00;99294.19;5074379;28;20288;-75
2023/08/09 00:30:46;;;;;;;2.30;2.07;;;;;;;15.02;100.00;99292.84;5068849;28;20286;-74
2023/08/09 00:33:13;;;;;;;2.80;2.17;;;;;;;15.01;100.00;99295.78;5074153;28;20289;-75
2023/08/09 00:35:39;;;;;;;2.20;2.03;;;;;;;14.99;100.00;99298.72;5074525;28;20291;-74
2023/08/09 00:38:07;;;;;;;2.97;2.10;;;;;;;14.97;100.00;99303.56;5067565;28;20225;-75
2023/08/09 00:40:33;;;;;;;4.00;2.10;;;;;;;14.96;100.00;99308.16;5072088;28;20201;-74
2023/08/09 00:43:00;;;;;;;3.23;1.90;;;;;;;14.92;100.00;99301.66;5058649;28;20284;-74
2023/08/09 00:45:27;;;;;;;2.13;1.80;;;;;;;14.86;100.00;99299.97;5073804;28;20665;-75
2023/08/09 00:47:54;;;;;;;2.30;2.10;;;;;;;14.87;100.00;99303.47;5072686;28;20207;-75
2023/08/09 00:50:21;;;;;;;2.07;1.90;;;;;;;14.92;100.00;99312.44;5073468;28;20196;-75
2023/08/09 00:52:48;;;;;;;2.47;2.20;;;;;;;14.90;100.00;99303.78;5071647;28;20203;-75
2023/08/09 00:55:15;;;;;;;2.07;1.97;;;;;;;14.86;100.00;99315.31;5068562;28;20217;-73
2023/08/09 00:57:41;;;;;;;2.90;2.07;;;;;;;14.82;100.00;99315.03;5073409;28;20221;-74
2023/08/09 01:00:09;;;;;;;2.53;1.77;;;;;;;14.85;100.00;99311.81;5073457;28;20563;-74
2023/08/09 01:02:36;;;;;;;2.43;2.03;;;;;;;14.83;100.00;99305.06;5073623;28;20636;-77
2023/08/09 01:05:04;;;;;;;2.10;1.90;;;;;;;14.82;100.00;99301.53;5053942;28;20199;-75
2023/08/09 01:07:45;;;;;;;2.30;1.77;;;;;;;14.84;100.00;99312.06;5068994;28;20240;-75
2023/08/09 01:10:18;;;;;;;2.83;1.70;;;;;;;14.81;100.00;99308.00;5040310;28;20205;-75
2023/08/09 01:12:52;;;;;;;2.80;1.80;;;;;;;14.82;100.00;99311.50;5033230;28;20688;-75
2023/08/09 01:15:20;;;;;;;2.27;1.80;;;;;;;14.85;100.00;99317.19;5053042;28;20209;-76
2023/08/09 01:17:51;;;;;;;2.40;2.10;;;;;;;14.86;100.00;99316.13;5058282;28;20286;-76
2023/08/09 01:20:21;;;;;;;2.00;1.80;;;;;;;14.87;100.00;99319.66;5042520;28;20206;-76
2023/08/09 01:22:57;;;;;;;2.57;1.90;;;;;;;14.89;100.00;99321.00;5059399;28;20247;-76
2023/08/09 01:25:25;;;;;;;2.10;1.90;;;;;;;14.89;100.00;99317.50;5056557;28;20242;-75
2023/08/09 01:27:52;;;;;;;1.90;1.80;;;;;;;14.88;100.00;99313.19;5057057;28;20250;-75
2023/08/09 01:30:18;;;;;;;2.10;1.90;;;;;;;14.87;100.00;99309.69;5060506;28;20216;-74
2023/08/09 01:32:46;;;;;;;1.83;1.70;;;;;;;14.90;100.00;99311.84;5073271;28;20258;-78
2023/08/09 01:35:13;;;;;;;2.10;1.90;;;;;;;14.92;100.00;99311.63;5070578;28;20209;-74
2023/08/09 01:37:45;;;;;;;1.80;1.70;;;;;;;14.93;100.00;99314.03;5055359;28;20272;-75
2023/08/09 01:40:15;;;;;;;1.90;1.80;;;;;;;14.91;100.00;99316.19;5072812;28;20232;-75
2023/08/09 01:42:42;;;;;;;2.07;1.80;;;;;;;14.96;100.00;99310.03;5055357;28;20208;-75
2023/08/09 01:45:11;;;;;;;1.90;1.80;;;;;;;14.98;100.00;99313.25;5072823;28;20217;-74
2023/08/09 01:47:41;;;;;;;1.70;1.60;;;;;;;14.98;100.00;99315.97;5073330;28;20637;-75
2023/08/09 01:50:23;;;;;;;2.80;1.87;;;;;;;15.00;100.00;99300.34;5072587;28;20196;-75
2023/08/09 01:52:50;;;;;;;2.13;1.93;;;;;;;15.04;100.00;99306.03;5072399;28;20622;-75
2023/08/09 01:55:19;;;;;;;2.00;1.80;;;;;;;15.02;100.00;99303.63;5069903;28;20224;-76
2023/08/09 01:57:46;;;;;;;3.00;1.53;;;;;;;15.01;100.00;99310.06;5051776;28;20638;-75
2023/08/09 02:00:24;;;;;;;2.33;2.13;;;;;;;15.04;100.00;99311.44;5061103;28;20234;-76
2023/08/09 02:02:52;;;;;;;2.00;1.80;;;;;;;15.03;100.00;99307.09;5069207;28;20262;-76
2023/08/09 02:05:19;;;;;;;4.03;1.90;;;;;;;15.05;100.00;99311.19;5072132;28;20204;-75
2023/08/09 02:07:47;;;;;;;2.20;1.90;;;;;;;15.02;100.00;99306.31;5056150;28;20233;-76
2023/08/09 02:10:16;;;;;;;1.90;1.80;;;;;;;15.02;100.00;99306.31;5072769;28;20193;-76
2023/08/09 02:12:49;;;;;;;2.03;1.83;;;;;;;14.96;100.00;99307.34;5072496;28;20243;-74
2023/08/09 02:15:17;;;;;;;2.30;1.87;;;;;;;14.97;100.00;99304.38;5065975;28;20231;-76
2023/08/09 02:17:44;;;;;;;2.93;1.97;;;;;;;14.97;100.00;99309.78;5064509;28;20190;-76
2023/08/09 02:20:11;;;;;;;1.87;1.77;;;;;;;14.99;100.00;99312.22;5057365;28;20608;-75
2023/08/09 02:22:39;;;;;;;1.83;1.73;;;;;;;15.02;100.00;99317.09;5060173;28;20198;-75
2023/08/09 02:25:07;;;;;;;1.70;1.60;;;;;;;15.05;100.00;99310.38;5072210;28;20200;-77
2023/08/09 02:27:34;;;;;;;2.67;1.90;;;;;;;15.04;100.00;99314.13;5068080;28;20193;-77
2023/08/09 02:30:06;;;;;;;1.70;1.60;;;;;;;15.03;100.00;99316.00;5069544;28;20673;-76
2023/08/09 02:32:34;;;;;;;2.03;1.70;;;;;;;15.03;100.00;99321.41;5071805;28;20565;-76
2023/08/09 02:35:02;;;;;;;2.07;1.90;;;;;;;15.03;100.00;99315.19;5056281;28;20671;-77
2023/08/09 02:37:29;;;;;;;2.10;1.83;;;;;;;15.06;100.00;99302.03;5064246;28;20260;-76
2023/08/09 02:39:56;;;;;;;1.60;1.50;;;;;;;15.02;100.00;99306.31;5063800;28;20241;-76
2023/08/09 02:42:23;;;;;;;2.00;1.90;;;;;;;15.02;100.00;99303.63;5072078;28;20609;-76
2023/08/09 02:44:50;;;;;;;3.00;1.70;;;;;;;15.06;100.00;99314.72;5071971;28;20197;-76
2023/08/09 02:47:17;;;;;;;2.07;1.77;;;;;;;15.05;100.00;99305.78;5050134;28;20668;-76
2023/08/09 02:49:44;;;;;;;1.77;1.53;;;;;;;15.08;100.00;99307.16;5070994;28;20193;-77
2023/08/09 02:52:10;;;;;;;2.03;1.73;;;;;;;15.12;100.00;99308.25;5065013;28;20197;-76
2023/08/09 02:54:37;;;;;;;1.70;1.60;;;;;;;15.14;100.00;99312.34;5066996;28;20192;-77
2023/08/09 02:57:06;;;;;;;1.93;1.70;;;;;;;15.15;100.00;99313.97;5056960;28;20228;-77
2023/08/09 02:59:34;;;;;;;1.90;1.70;;;;;;;15.19;100.00;99320.50;5066813;28;20263;-76
2023/08/09 03:02:01;;;;;;;1.83;1.70;;;;;;;15.21;100.00;99314.84;5049066;28;20197;-78
2023/08/09 03:04:28;;;;;;;1.70;1.60;;;;;;;15.20;100.00;99308.63;5049888;28;20208;-78
2023/08/09 03:06:55;;;;;;;1.93;1.63;;;;;;;15.23;100.00;99318.91;5069573;28;20303;-76
2023/08/09 03:09:22;;;;;;;1.93;1.73;;;;;;;15.25;100.00;99314.06;5070930;28;20853;-76
2023/08/09 03:11:48;;;;;;;2.20;1.57;;;;;;;15.25;100.00;99315.97;5071604;28;20682;-77
2023/08/09 03:14:15;;;;;;;2.60;1.70;;;;;;;15.27;100.00;99317.31;5071693;28;20656;-77
2023/08/09 03:16:42;;;;;;;1.77;1.67;;;;;;;15.29;100.00;99314.38;5071473;28;20244;-77
2023/08/09 03:19:09;;;;;;;1.97;1.47;;;;;;;15.31;100.00;99313.03;5065880;28;20590;-77
2023/08/09 03:21:37;;;;;;;2.00;1.60;;;;;;;15.29;100.00;99320.59;5059262;28;20204;-78
2023/08/09 03:24:04;;;;;;;2.17;1.77;;;;;;;15.30;100.00;99318.69;5070176;28;20181;-77
2023/08/09 03:26:31;;;;;;;2.10;1.90;;;;;;;15.29;100.00;99320.59;5055656;28;20197;-77
2023/08/09 03:29:00;;;;;;;1.97;1.77;;;;;;;15.31;100.00;99320.31;5063387;28;20229;-77
2023/08/09 03:31:26;;;;;;;1.90;1.70;;;;;;;15.26;100.00;99317.56;5064776;28;20326;-77
2023/08/09 03:33:53;;;;;;;2.50;1.67;;;;;;;15.23;100.00;99324.31;5067794;28;20205;-78
2023/08/09 03:36:20;;;;;;;2.50;1.70;;;;;;;15.21;100.00;99323.72;5069774;28;20232;-76
2023/08/09 03:38:48;;;;;;;2.53;1.87;;;;;;;15.19;100.00;99323.19;5043670;28;20229;-77
2023/08/09 03:41:15;;;;;;;2.00;1.80;;;;;;;15.18;100.00;99328.84;5049553;28;20202;-75
2023/08/09 03:43:41;;;;;;;2.40;1.83;;;;;;;15.15;100.00;99322.06;5052057;28;20644;-76
2023/08/09 03:46:08;;;;;;;2.13;1.80;;;;;;;15.17;100.00;99327.19;5065459;28;20205;-77
2023/08/09 03:48:35;;;;;;;2.07;1.87;;;;;;;15.16;100.00;99325.59;5053175;28;20228;-76
2023/08/09 03:51:01;;;;;;;2.07;1.97;;;;;;;15.17;100.00;99322.63;5064982;28;20193;-76
2023/08/09 03:53:28;;;;;;;3.17;2.20;;;;;;;15.13;100.00;99320.69;5062504;28;20221;-76
2023/08/09 03:55:55;;;;;;;3.80;1.83;;;;;;;15.12;100.00;99325.28;5056231;28;20228;-77
2023/08/09 03:58:21;;;;;;;2.43;2.00;;;;;;;15.12;100.00;99336.06;5069917;28;20606;-75
2023/08/09 04:00:48;;;;;;;2.17;1.87;;;;;;;15.19;100.00;99333.97;5070455;28;20228;-77
2023/08/09 04:03:17;;;;;;;2.20;2.00;;;;;;;15.23;100.00;99335.09;5057422;28;20201;-77
2023/08/09 04:05:44;;;;;;;1.80;1.70;;;;;;;15.30;100.00;99341.06;5055182;28;20209;-76
2023/08/09 04:08:11;;;;;;;1.83;1.73;;;;;;;15.31;100.00;99334.63;5083487;28;20239;-76
2023/08/09 04:10:38;;;;;;;2.03;1.80;;;;;;;15.32;100.00;99335.44;5094158;28;20193;-75
2023/08/09 04:13:04;;;;;;;2.30;2.10;;;;;;;15.36;100.00;99333.84;5091923;28;20202;-76
2023/08/09 04:15:31;;;;;;;2.30;2.10;;;;;;;15.34;100.00;99333.31;5088646;28;20548;-75
2023/08/09 04:17:58;;;;;;;3.17;1.83;;;;;;;15.34;100.00;99328.72;5090014;28;20205;-76
2023/08/09 04:20:26;;;;;;;2.17;1.97;;;;;;;15.33;100.00;99321.69;5085138;28;20636;-75
2023/08/09 04:22:55;;;;;;;2.23;2.00;;;;;;;15.36;100.00;99329.25;5089203;28;20200;-76
2023/08/09 04:25:22;;;;;;;1.90;1.80;;;;;;;15.34;100.00;99323.31;5094242;28;20249;-75
2023/08/09 04:27:49;;;;;;;1.80;1.70;;;;;;;15.38;100.00;99329.84;5094474;28;20193;-75
2023/08/09 04:30:15;;;;;;;3.07;1.90;;;;;;;15.40;100.00;99318.75;5089174;28;20193;-76
2023/08/09 04:32:42;;;;;;;2.90;1.90;;;;;;;15.38;100.00;99332.53;5091741;28;20191;-75
2023/08/09 04:35:09;;;;;;;3.47;2.30;;;;;;;15.41;100.00;99323.09;5094292;28;20198;-75
2023/08/09 04:37:36;;;;;;;2.23;1.83;;;;;;;15.49;100.00;99322.59;5093616;28;20212;-75
2023/08/09 04:40:09;;;;;;;2.17;1.97;;;;;;;15.55;100.00;99323.50;5088711;28;20287;-75
2023/08/09 04:42:36;;;;;;;1.70;1.60;;;;;;;15.58;100.00;99328.41;5094169;28;20207;-75
2023/08/09 04:45:03;;;;;;;2.60;2.40;;;;;;;15.59;100.00;99320.00;5087312;28;20708;-75
2023/08/09 04:47:30;;;;;;;2.57;1.80;;;;;;;15.66;100.00;99331.41;5091052;28;20600;-75
2023/08/09 04:49:57;;;;;;;1.90;1.80;;;;;;;15.68;100.00;99328.44;5092480;28;20237;-75
2023/08/09 04:52:24;;;;;;;3.30;1.80;;;;;;;15.72;100.00;99326.88;5089106;28;20185;-76
2023/08/09 04:54:50;;;;;;;1.97;1.80;;;;;;;15.78;100.00;99331.22;5086621;28;20671;-76
2023/08/09 04:57:17;;;;;;;1.80;1.70;;;;;;;15.88;100.00;99328.56;5086982;28;20250;-75
2023/08/09 04:59:43;;;;;;;3.13;1.80;;;;;;;15.98;100.00;99325.94;5085861;28;20649;-76
2023/08/09 05:02:10;;;;;;;2.43;1.87;;;;;;;16.12;100.00;99324.41;5090457;28;20288;-75
2023/08/09 05:04:37;;;;;;;2.20;1.73;;;;;;;16.25;100.00;99320.38;5082994;28;20651;-76
2023/08/09 05:07:04;;;;;;;2.10;1.80;;;;;;;16.37;100.00;99326.41;5082503;28;20708;-75
2023/08/09 05:09:32;;;;;;;1.70;1.60;;;;;;;16.45;100.00;99315.06;5073386;28;20220;-76
2023/08/09 05:11:58;;;;;;;2.03;1.67;;;;;;;16.49;100.00;99318.88;5066439;28;20197;-76
2023/08/09 05:14:25;;;;;;;2.13;1.70;;;;;;;16.54;100.00;99309.97;5072359;28;20227;-77
2023/08/09 05:16:55;;;;;;;1.50;1.40;;;;;;;16.64;100.00;99318.94;5073049;28;20247;-76
2023/08/09 05:19:22;;;;;;;1.70;1.60;;;;;;;16.77;100.00;99323.03;5071033;28;20648;-75
2023/08/09 05:21:49;;;;;;;2.63;1.50;;;;;;;16.80;100.00;99310.88;5071028;28;20256;-75
2023/08/09 05:24:15;;;;;;;1.90;1.60;;;;;;;16.84;100.00;99322.78;5071389;28;20276;-76
2023/08/09 05:26:42;;;;;;;1.67;1.57;;;;;;;16.89;100.00;99322.81;5073085;28;20616;-75
2023/08/09 05:29:09;;;;;;;1.73;1.57;;;;;;;16.95;100.00;99322.53;5072989;28;20193;-75
2023/08/09 05:31:35;;;;;;;2.03;1.60;;;;;;;17.00;100.00;99314.41;5072635;28;20218;-76
2023/08/09 05:34:02;;;;;;;2.03;1.60;;;;;;;17.11;100.00;99321.47;5070851;28;20228;-76
2023/08/09 05:36:30;;;;;;;3.27;1.70;;;;;;;17.27;100.00;99326.88;5070098;28;20225;-75
2023/08/09 05:38:56;;;;;;;2.37;1.70;;;;;;;17.42;100.00;99303.31;5071237;28;20261;-77
2023/08/09 05:41:23;;;;;;;1.63;1.53;;;;;;;17.60;100.00;99308.22;5070976;28;20285;-75
2023/08/09 05:43:49;;;;;;;2.17;1.67;;;;;;;17.71;100.00;99311.72;5071121;28;20657;-75
2023/08/09 05:46:16;;;;;;;2.27;1.73;;;;;;;17.82;100.00;99305.22;5061816;28;20690;-75
2023/08/09 05:48:43;;;;;;;2.20;1.37;;;;;;;17.89;100.00;99305.72;5064090;28;20190;-75
2023/08/09 05:51:10;;;;;;;2.60;1.50;;;;;;;17.93;100.00;99303.28;5072285;28;20220;-76
2023/08/09 05:53:37;;;;;;;1.67;1.57;;;;;;;17.98;100.00;99309.50;5072497;28;20688;-76
2023/08/09 05:56:03;;;;;;;1.67;1.57;;;;;;;18.06;100.00;99307.31;5072299;28;20194;-76
2023/08/09 05:58:30;;;;;;;3.67;1.70;;;;;;;18.17;100.00;99312.41;5072254;28;20302;-75
2023/08/09 06:00:57;;;;;;;2.10;1.40;;;;;;;18.36;100.00;99309.91;5072153;28;20667;-75
2023/08/09 06:03:23;;;;;;;5.10;1.93;;;;;;;18.59;100.00;99320.13;5072319;28;20204;-75
2023/08/09 06:05:50;;;;;;;2.53;1.70;;;;;;;18.76;100.00;99312.44;5071912;28;20233;-75
2023/08/09 06:08:17;;;;;;;2.27;1.77;;;;;;;18.87;100.00;99316.72;5102494;28;20723;-77
2023/08/09 06:10:43;;;;;;;2.00;1.73;;;;;;;18.91;100.00;99311.53;5104968;28;20282;-75
2023/08/09 06:13:11;;;;;;;3.87;1.87;;;;;;;18.97;100.00;99307.69;5105577;28;20262;-76
2023/08/09 06:15:38;;;;;;;2.90;2.00;;;;;;;19.01;100.00;99307.94;5107601;28;20226;-77
2023/08/09 06:18:04;;;;;;;5.37;2.23;;;;;;;18.89;100.00;99311.81;5112218;28;20247;-76
2023/08/09 06:20:31;;;;;;;6.50;2.00;;;;;;;18.86;100.00;99301.50;5093593;28;20279;-76
2023/08/09 06:22:58;;;;;;;3.03;1.93;;;;;;;18.91;100.00;99306.91;5105497;28;20193;-78
2023/08/09 06:25:25;;;;;;;3.73;2.07;;;;;;;18.91;100.00;99320.47;5108754;28;20228;-75
2023/08/09 06:27:53;;;;;;;5.13;2.00;;;;;;;19.05;100.00;99319.84;5108298;28;20650;-75
2023/08/09 06:30:20;;;;;;;4.03;1.90;;;;;;;19.10;100.00;99311.66;5104473;28;20300;-76
2023/08/09 06:32:48;;;;;;;2.97;1.90;;;;;;;19.24;100.00;99312.66;5105548;28;20226;-75
2023/08/09 06:35:15;;;;;;;2.57;1.60;;;;;;;19.40;100.00;99313.34;5102157;28;20199;-77
2023/08/09 06:37:41;;;;;;;3.23;1.80;;;;;;;19.60;100.00;99318.59;5103749;28;20282;-75
2023/08/09 06:40:09;;;;;;;4.27;1.93;;;;;;;19.78;100.00;99323.34;5094386;28;20623;-76
2023/08/09 06:42:35;;;;;;;3.97;2.00;;;;;;;19.92;100.00;99324.28;5104531;28;20186;-75
2023/08/09 06:45:05;;;;;;;5.50;2.00;;;;;;;20.09;100.00;99315.66;5082355;28;20205;-78
2023/08/09 06:47:32;;;;;;;3.97;1.90;;;;;;;20.17;100.00;99320.47;5103105;28;20193;-75
2023/08/09 06:50:00;;;;;;;4.93;1.90;;;;;;;20.33;100.00;99319.22;5107642;28;20680;-75
2023/08/09 06:52:27;;;;;;;2.97;1.73;;;;;;;20.34;100.00;99320.88;5101006;28;20666;-74
2023/08/09 06:54:54;;;;;;;1.97;1.60;;;;;;;20.58;100.00;99321.63;5109638;28;20192;-75
2023/08/09 06:57:23;;;;;;;3.43;1.80;;;;;;;20.83;100.00;99316.94;5103870;28;20593;-75
2023/08/09 06:59:51;;;;;;;3.67;1.80;;;;;;;21.01;100.00;99319.66;5094734;28;20655;-75
2023/08/09 07:02:19;;;;;;;3.30;1.77;;;;;;;21.32;100.00;99316.50;5112302;28;20205;-74
2023/08/09 07:04:45;;;;;;;3.47;1.53;;;;;;;21.72;100.00;99307.63;5104163;28;20207;-76
2023/08/09 07:07:12;;;;;;;3.33;1.80;;;;;;;21.96;100.00;99304.75;5111942;28;20232;-75
2023/08/09 07:09:40;;;;;;;2.70;1.67;;;;;;;22.18;100.00;99295.84;5102081;28;20286;-76
2023/08/09 07:12:07;;;;;;;3.13;1.70;;;;;;;22.52;100.00;99306.34;5112097;28;20199;-75
2023/08/09 07:14:33;;;;;;;3.65;1.60;;;;;;;22.77;100.00;99297.63;5111923;28;20290;-74
2023/08/09 07:17:00;;;;;;;2.75;1.63;;;;;;;22.86;100.00;99292.25;5101556;28;20295;-75
2023/08/09 07:19:27;;;;;;;4.78;1.70;;;;;;;22.85;100.00;99305.09;5111953;28;20192;-74
2023/08/09 07:21:54;;;;;;;1.98;1.40;;;;;;;22.84;100.00;99306.22;5111931;28;20319;-74
2023/08/09 07:24:20;;;;;;;2.30;1.45;;;;;;;22.81;100.00;99304.91;5097212;28;20196;-75
2023/08/09 07:26:47;;;;;;;4.45;1.70;;;;;;;22.72;100.00;99312.19;5095809;28;20197;-76
2023/08/09 07:29:14;;;;;;;3.60;1.55;;;;;;;22.51;100.00;99313.72;5087179;28;20221;-73
2023/08/09 07:31:40;;;;;;;4.03;1.55;;;;;;;22.46;100.00;99313.84;5097659;28;20234;-78
2023/08/09 07:34:07;;;;;;;3.10;1.50;;;;;;;22.49;100.00;99310.47;5095381;28;20670;-75
2023/08/09 07:36:33;;;;;;;3.80;1.50;;;;;;;22.40;100.00;99309.59;5086964;28;20626;-75
2023/08/09 07:39:00;;;;;;;2.00;1.77;;;;;;;22.50;100.00;99306.66;5093563;28;20240;-73
2023/08/09 07:41:30;;;;;;;3.10;1.83;;;;;;;22.58;100.00;99305.94;5092210;28;20203;-75
2023/08/09 07:43:57;;;;;;;3.85;1.85;;;;;;;22.51;100.00;99304.72;5090934;28;20226;-74
2023/08/09 07:46:23;;;;;;;2.90;1.65;;;;;;;22.35;100.00;99310.50;5087711;28;20275;-74
2023/08/09 07:48:51;;;;;;;3.92;1.80;;;;;;;22.18;100.00;99309.50;5090721;28;20249;-75
2023/08/09 07:51:18;;;;;;;2.13;1.40;;;;;;;21.94;100.00;99310.50;5096496;28;20200;-77
2023/08/09 07:53:45;;;;;;;2.40;1.65;;;;;;;21.86;100.00;99313.91;5085585;28;20638;-75
2023/08/09 07:56:12;;;;;;;2.25;1.50;;;;;;;21.90;100.00;99308.66;5090625;28;20535;-75
2023/08/09 07:58:39;;;;;;;2.17;1.50;;;;;;;22.04;100.00;99314.94;5100666;28;20258;-76
2023/08/09 08:01:05;;;;;;;1.73;1.48;;;;;;;22.24;100.00;99314.56;5099662;28;20188;-75
2023/08/09 08:03:33;;;;;;;1.42;1.20;;;;;;;22.18;100.00;99317.69;5091723;28;20196;-76
2023/08/09 08:05:59;;;;;;;2.83;1.63;;;;;;;22.04;100.00;99323.13;5096459;28;20196;-75
2023/08/09 08:08:27;;;;;;;1.50;1.40;;;;;;;21.84;100.00;99323.47;5107092;28;20277;-75
2023/08/09 08:10:54;;;;;;;1.52;1.40;;;;;;;21.65;100.00;99330.94;5101926;28;20193;-75
2023/08/09 08:13:21;;;;;;;1.70;1.60;;;;;;;21.44;100.00;99338.63;5100519;28;20242;-75
2023/08/09 08:15:47;;;;;;;2.15;1.50;;;;;;;21.45;100.00;99329.34;5096819;28;20246;-75
2023/08/09 08:18:14;;;;;;;1.55;1.35;;;;;;;21.56;100.00;99332.72;5099267;28;20698;-74
2023/08/09 08:20:41;;;;;;;2.33;1.30;;;;;;;21.57;100.00;99331.59;5092648;28;20281;-74
2023/08/09 08:23:07;;;;;;;1.58;1.40;;;;;;;21.64;100.00;99332.84;5097033;28;20270;-76
2023/08/09 08:25:34;;;;;;;3.47;1.63;;;;;;;21.60;100.00;99345.47;5095494;28;20216;-75
2023/08/09 08:28:01;;;;;;;1.70;1.60;;;;;;;21.55;100.00;99350.19;5093881;28;20193;-76
2023/08/09 08:30:27;;;;;;;2.65;1.70;;;;;;;21.44;100.00;99344.91;5094910;28;20220;-74
2023/08/09 08:32:54;;;;;;;1.90;1.70;;;;;;;21.47;100.00;99348.94;5085755;28;20185;-75
2023/08/09 08:35:21;;;;;;;3.38;1.60;;;;;;;21.59;100.00;99345.75;5099711;28;20262;-74
2023/08/09 08:37:49;;;;;;;2.40;1.73;;;;;;;21.43;100.00;99346.00;5093278;28;20223;-75
2023/08/09 08:40:21;;;;;;;2.05;1.60;;;;;;;20.62;100.00;99351.81;5096961;28;20632;-76
2023/08/09 08:42:48;;;;;;;2.13;1.77;;;;;;;20.96;100.00;99346.97;5098563;28;20209;-75
2023/08/09 08:45:16;;;;;;;1.75;1.58;;;;;;;21.10;100.00;99347.84;5099001;28;20210;-75
2023/08/09 08:47:44;;;;;;;3.10;1.80;;;;;;;21.06;100.00;99354.16;5076174;28;20206;-75
2023/08/09 08:50:13;;;;;;;2.53;1.50;;;;;;;20.97;100.00;99364.09;5098149;28;20605;-76
2023/08/09 08:52:42;;;;;;;2.33;1.70;;;;;;;20.98;100.00;99392.97;5091488;28;20193;-76
2023/08/09 08:55:11;;;;;;;4.40;1.60;;;;;;;20.90;100.00;99394.41;5101387;28;20223;-77
2023/08/09 08:57:39;;;;;;;1.60;1.50;;;;;;;20.72;100.00;99399.84;5098921;28;20239;-75
2023/08/09 09:00:15;;;;;;;3.00;1.87;;;;;;;20.69;100.00;99412.13;5094612;28;20539;-75
2023/08/09 09:02:53;;;;;;;1.90;1.50;;;;;;;20.79;100.00;99419.34;5072960;28;20276;-76
2023/08/09 09:05:20;;;;;;;2.63;1.77;;;;;;;20.82;100.00;99426.94;5096665;28;20188;-74
2023/08/09 09:07:50;;;;;;;1.60;1.50;;;;;;;20.96;100.00;99442.28;5090359;28;20244;-75
2023/08/09 09:10:21;;;;;;;4.63;1.80;;;;;;;21.01;100.00;99439.47;5088885;28;20254;-75
2023/08/09 09:12:50;;;;;;;2.58;1.80;;;;;;;20.99;100.00;99438.16;5082262;28;20203;-76
2023/08/09 09:15:17;;;;;;;1.92;1.75;;;;;;;21.03;100.00;99444.66;5081817;28;20253;-75
2023/08/09 09:17:45;;;;;;;4.63;1.98;;;;;;;20.67;100.00;99436.91;5081873;28;20212;-74
2023/08/09 09:20:24;;;;;;;4.60;2.50;;;;;;;20.73;100.00;99434.13;5076964;28;20697;-74
2023/08/09 09:22:52;;;;;;;3.50;2.27;;;;;;;20.65;100.00;99441.03;5054924;28;20196;-75
2023/08/09 09:25:22;;;;;;;4.17;2.40;;;;;;;20.40;100.00;99441.31;5074699;28;20204;-77
2023/08/09 09:27:54;;;;;;;3.93;2.40;;;;;;;20.32;100.00;99448.19;5072279;28;20594;-75
2023/08/09 09:30:24;;;;;;;2.40;2.20;;;;;;;20.37;100.00;99450.88;5052728;28;20222;-75
2023/08/09 09:32:51;;;;;;;3.13;1.90;;;;;;;20.11;100.00;99455.69;5064670;28;20333;-75
2023/08/09 09:35:19;;;;;;;2.47;2.27;;;;;;;19.79;100.00;99453.53;5069410;28;20215;-75
2023/08/09 09:37:50;;;;;;;4.17;2.13;;;;;;;19.65;100.00;99457.97;5065884;28;20695;-74
2023/08/09 09:40:24;;;;;;;3.77;2.10;;;;;;;19.58;100.00;99464.84;5069548;28;20306;-75
2023/08/09 09:42:55;;;;;;;5.40;1.97;;;;;;;19.41;100.00;99470.59;5063496;28;20612;-74
2023/08/09 09:45:27;;;;;;;3.57;2.00;;;;;;;19.22;100.00;99477.81;5065184;28;20284;-75
2023/08/09 09:47:56;;;;;;;2.60;1.90;;;;;;;19.13;100.00;99479.47;5072781;28;20236;-75
2023/08/09 09:50:28;;;;;;;1.70;1.60;;;;;;;19.00;100.00;99472.72;5078359;28;20228;-75
2023/08/09 09:52:55;;;;;;;2.30;2.10;;;;;;;18.88;100.00;99469.53;5079184;28;20191;-74
2023/08/09 09:55:25;;;;;;;3.30;2.10;;;;;;;18.96;100.00;99468.13;5075952;28;20208;-76
2023/08/09 09:57:53;;;;;;;6.03;2.40;;;;;;;19.22;100.00;99477.81;5078311;28;20223;-77
2023/08/09 10:00:20;;;;;;;2.17;1.97;;;;;;;19.40;100.00;99474.44;5076280;28;20673;-76
2023/08/09 10:02:48;;;;;;;2.10;1.90;;;;;;;19.69;100.00;99467.19;5077638;28;20200;-74
2023/08/09 10:05:21;;;;;;;2.33;1.77;;;;;;;19.90;100.00;99464.31;5069317;28;20204;-75
2023/08/09 10:07:49;;;;;;;2.30;1.90;;;;;;;20.03;100.00;99471.81;5061850;28;20287;-75
2023/08/09 10:10:19;;;;;;;3.17;1.97;;;;;;;19.99;100.00;99466.16;5071525;28;20288;-75
2023/08/09 10:12:55;;;;;;;2.80;1.80;;;;;;;19.86;100.00;99474.16;5071955;28;20279;-75
2023/08/09 10:15:27;;;;;;;3.43;1.90;;;;;;;19.81;100.00;99477.72;5069534;28;20192;-75
2023/08/09 10:17:59;;;;;;;2.50;1.93;;;;;;;19.99;100.00;99477.03;5071405;28;20691;-75
2023/08/09 10:20:26;;;;;;;2.47;2.10;;;;;;;20.06;100.00;99472.06;5063765;28;20573;-74
2023/08/09 10:22:55;;;;;;;2.97;2.13;;;;;;;20.21;100.00;99479.28;5063325;28;20241;-76
2023/08/09 10:25:43;;;;;;;4.33;2.40;;;;;;;20.40;100.00;99471.22;5066858;28;20199;-74
2023/08/09 10:28:10;;;;;;;3.67;1.83;;;;;;;20.17;100.00;99480.94;5054051;28;20315;-74
2023/08/09 10:30:50;;;;;;;2.10;1.73;;;;;;;20.32;100.00;99474.59;5066552;28;20195;-74
2023/08/09 10:33:20;;;;;;;1.50;1.40;;;;;;;20.27;100.00;99474.59;5057841;28;20204;-73
2023/08/09 10:35:52;;;;;;;2.47;1.73;;;;;;;20.15;100.00;99486.69;5047441;28;20264;-76
2023/08/09 10:38:21;;;;;;;2.53;1.70;;;;;;;19.96;100.00;99483.03;5070054;28;20267;-78
2023/08/09 10:40:53;;;;;;;3.47;1.73;;;;;;;20.00;100.00;99475.94;5053033;28;20206;-77
2023/08/09 10:43:21;;;;;;;2.13;1.80;;;;;;;19.95;100.00;99478.69;5067835;28;20196;-77
2023/08/09 10:45:49;;;;;;;2.43;2.00;;;;;;;19.85;100.00;99486.09;5044504;28;20851;-78
2023/08/09 10:48:16;;;;;;;3.37;2.10;;;;;;;19.68;100.00;99494.66;5071286;28;20288;-76
2023/08/09 10:50:43;;;;;;;3.03;1.87;;;;;;;19.78;100.00;99502.75;5070774;28;20805;-75
2023/08/09 10:53:21;;;;;;;2.53;2.07;;;;;;;19.39;100.00;99499.16;5071164;28;20898;-76
2023/08/09 10:55:49;;;;;;;3.03;2.20;;;;;;;19.18;100.00;99493.81;5071080;28;20207;-77
2023/08/09 10:58:16;;;;;;;4.17;2.20;;;;;;;19.19;100.00;99500.06;5071125;28;20260;-76
2023/08/09 11:00:43;;;;;;;2.27;2.07;;;;;;;19.25;100.00;99505.22;5070049;28;20277;-76
2023/08/09 11:03:11;;;;;;;2.73;2.23;;;;;;;18.92;100.00;99497.75;5071167;28;20268;-76
2023/08/09 11:05:38;;;;;;;2.33;1.93;;;;;;;18.94;100.00;99508.34;5060817;28;20201;-76
2023/08/09 11:08:12;;;;;;;2.43;2.07;;;;;;;18.48;100.00;99500.25;5093232;28;20269;-77
2023/08/09 11:10:40;;;;;;;3.70;2.40;;;;;;;18.70;100.00;99498.09;5102209;28;20202;-74
2023/08/09 11:13:08;;;;;;;2.87;2.00;;;;;;;18.61;100.00;99494.31;5101542;28;20274;-74
2023/08/09 11:15:36;;;;;;;2.70;2.17;;;;;;;18.77;100.00;99500.50;5109117;28;20202;-75
2023/08/09 11:18:03;;;;;;;3.57;2.37;;;;;;;18.80;100.00;99495.31;5112190;28;20755;-75
2023/08/09 11:20:30;;;;;;;3.20;2.67;;;;;;;18.76;100.00;99496.97;5105318;28;20194;-76
2023/08/09 11:22:58;;;;;;;2.50;2.30;;;;;;;18.92;100.00;99495.03;5081925;28;20617;-74
2023/08/09 11:25:27;;;;;;;3.40;2.43;;;;;;;19.07;100.00;99489.53;5083836;28;20222;-74
2023/08/09 11:27:56;;;;;;;3.03;2.23;;;;;;;19.26;100.00;99487.81;5091086;28;20196;-76